createdAt,value
2022-11-10T00:00:16.735Z,97643.41
2022-11-10T00:02:43.370Z,97652.06
2022-11-10T00:05:10.034Z,97655.53
2022-11-10T00:07:36.706Z,97661.41
2022-11-10T00:10:03.369Z,97667.78
2022-11-10T00:12:30.050Z,97670.06
2022-11-10T00:14:56.678Z,97666.16
2022-11-10T00:17:23.648Z,97664.84
2022-11-10T00:19:50.322Z,97667.78
2022-11-10T00:22:17.002Z,97662.06
2022-11-10T00:24:43.654Z,97672.06
2022-11-10T00:27:10.332Z,97670.25
2022-11-10T00:29:37.408Z,97668.94
2022-11-10T00:32:04.051Z,97671.06
2022-11-10T00:34:30.741Z,97672.53
2022-11-10T00:36:57.387Z,97667.63
2022-11-10T00:39:24.064Z,97668.59
2022-11-10T00:41:50.743Z,97678.75
2022-11-10T00:44:17.370Z,97685.28
2022-11-10T00:46:44.139Z,97678.28
2022-11-10T00:49:10.801Z,97681.69
2022-11-10T00:51:37.481Z,97685.59
2022-11-10T00:54:04.184Z,97695.25
2022-11-10T00:56:30.833Z,97697.06
2022-11-10T00:58:57.473Z,97695.56
2022-11-10T01:01:24.246Z,97695.56
2022-11-10T01:03:50.916Z,97695.56
2022-11-10T01:06:17.543Z,97700.44
2022-11-10T01:08:44.186Z,97701.97
2022-11-10T01:11:10.841Z,97698.69
2022-11-10T01:13:37.489Z,97700.16
2022-11-10T01:16:04.139Z,97705.41
2022-11-10T01:18:30.788Z,97704.94
2022-11-10T01:20:57.502Z,97703.09
2022-11-10T01:23:24.501Z,97706.88
2022-11-10T01:25:51.300Z,97707.81
2022-11-10T01:28:17.937Z,97708.97
2022-11-10T01:30:44.576Z,97708.84
2022-11-10T01:33:11.186Z,97711.63
2022-11-10T01:35:37.848Z,97710.81
2022-11-10T01:38:04.501Z,97712.63
2022-11-10T01:40:31.201Z,97720.97
2022-11-10T01:42:57.916Z,97719.84
2022-11-10T01:45:24.547Z,97734.06
2022-11-10T01:47:51.166Z,97732.59
2022-11-10T01:50:17.776Z,97738.66
2022-11-10T01:52:44.423Z,97748.50
2022-11-10T01:55:11.101Z,97755.69
2022-11-10T01:57:37.747Z,97753.06
2022-11-10T02:00:04.404Z,97761.59
2022-11-10T02:02:31.052Z,97755.03
2022-11-10T02:04:57.721Z,97761.59
2022-11-10T02:07:24.438Z,97765.03
2022-11-10T02:09:51.078Z,97767.97
2022-11-10T02:12:17.725Z,97769.63
2022-11-10T02:14:44.388Z,97768.00
2022-11-10T02:17:11.117Z,97760.94
2022-11-10T02:19:37.772Z,97765.22
2022-11-10T02:22:04.430Z,97752.44
2022-11-10T02:24:31.103Z,97750.13
2022-11-10T02:26:57.943Z,97746.88
2022-11-10T02:29:24.589Z,97748.97
2022-11-10T02:31:51.222Z,97749.47
2022-11-10T02:34:17.876Z,97751.28
2022-11-10T02:36:44.493Z,97761.78
2022-11-10T02:39:11.156Z,97766.50
2022-11-10T02:41:37.880Z,97765.69
2022-11-10T02:44:04.555Z,97759.63
2022-11-10T02:46:31.180Z,97766.00
2022-11-10T02:48:57.827Z,97761.09
2022-11-10T02:51:24.508Z,97768.63
2022-11-10T02:53:51.373Z,97766.31
2022-11-10T02:56:18.023Z,97767.97
2022-11-10T02:58:44.695Z,97766.78
2022-11-10T03:01:11.358Z,97768.59
2022-11-10T03:03:38.042Z,97774.09
2022-11-10T03:06:04.722Z,97776.59
2022-11-10T03:08:31.376Z,97770.91
2022-11-10T03:10:58.049Z,97772.72
2022-11-10T03:13:25.006Z,97783.34
2022-11-10T03:15:51.850Z,97784.34
2022-11-10T03:18:18.478Z,97795.47
2022-11-10T03:20:45.187Z,97803.34
2022-11-10T03:23:11.884Z,97804.94
2022-11-10T03:25:38.530Z,97812.47
2022-11-10T03:28:05.214Z,97811.06
2022-11-10T03:30:31.876Z,97815.97
2022-11-10T03:32:58.537Z,97811.00
2022-11-10T03:35:25.167Z,97815.44
2022-11-10T03:37:51.803Z,97822.78
2022-11-10T03:40:18.472Z,97822.34
2022-11-10T03:42:45.137Z,97841.00
2022-11-10T03:45:11.798Z,97846.34
2022-11-10T03:47:38.443Z,97849.16
2022-11-10T03:50:05.145Z,97851.69
2022-11-10T03:52:31.826Z,97860.06
2022-11-10T03:55:03.128Z,97858.06
2022-11-10T03:57:30.286Z,97852.50
2022-11-10T03:59:56.886Z,97850.38
2022-11-10T04:02:23.547Z,97854.13
2022-11-10T04:04:50.221Z,97852.31
2022-11-10T04:07:16.889Z,97846.75
2022-11-10T04:09:43.581Z,97852.16
2022-11-10T04:12:10.212Z,97857.66
2022-11-10T04:14:36.896Z,97863.69
2022-11-10T04:17:03.519Z,97860.94
2022-11-10T04:19:30.247Z,97863.03
2022-11-10T04:21:56.878Z,97853.69
2022-11-10T04:24:23.550Z,97857.84
2022-11-10T04:26:50.219Z,97854.50
2022-11-10T04:29:16.840Z,97862.78
2022-11-10T04:31:43.557Z,97854.41
2022-11-10T04:34:10.329Z,97869.50
2022-11-10T04:36:36.993Z,97873.47
2022-11-10T04:39:03.655Z,97871.53
2022-11-10T04:41:30.300Z,97870.53
2022-11-10T04:43:56.981Z,97867.28
2022-11-10T04:46:23.649Z,97884.94
2022-11-10T04:48:50.289Z,97873.78
2022-11-10T04:51:16.980Z,97877.75
2022-11-10T04:53:43.682Z,97883.31
2022-11-10T04:56:10.397Z,97889.69
2022-11-10T04:58:37.111Z,97892.31
2022-11-10T05:01:03.772Z,97895.91
2022-11-10T05:03:30.429Z,97892.16
2022-11-10T05:05:57.056Z,97896.13
2022-11-10T05:08:23.695Z,97899.19
2022-11-10T05:10:51.074Z,97907.22
2022-11-10T05:13:17.719Z,97905.81
2022-11-10T05:15:44.460Z,97908.56
2022-11-10T05:18:11.097Z,97916.13
2022-11-10T05:20:37.786Z,97913.94
2022-11-10T05:23:04.457Z,97910.06
2022-11-10T05:25:31.094Z,97916.78
2022-11-10T05:27:57.784Z,97911.72
2022-11-10T05:30:24.432Z,97912.69
2022-11-10T05:32:51.092Z,97924.31
2022-11-10T05:35:17.726Z,97928.28
2022-11-10T05:37:44.364Z,97935.81
2022-11-10T05:40:11.079Z,97937.94
2022-11-10T05:42:37.712Z,97950.06
2022-11-10T05:45:04.399Z,97960.00
2022-11-10T05:47:31.069Z,97965.13
2022-11-10T05:52:43.446Z,97958.75
2022-11-10T05:55:14.429Z,97953.53
2022-11-10T05:57:41.079Z,97957.44
2022-11-10T06:00:07.731Z,97965.66
2022-11-10T06:02:34.411Z,97967.94
2022-11-10T06:05:01.163Z,97980.06
2022-11-10T06:07:27.784Z,97975.66
2022-11-10T06:09:54.470Z,97985.97
2022-11-10T06:12:21.143Z,97990.41
2022-11-10T06:14:47.800Z,97994.03
2022-11-10T06:17:14.468Z,97995.16
2022-11-10T06:19:41.491Z,98005.81
2022-11-10T06:22:08.191Z,97999.59
2022-11-10T06:24:34.800Z,98003.03
2022-11-10T06:27:01.520Z,98005.69
2022-11-10T06:29:28.152Z,98022.25
2022-11-10T06:31:54.877Z,98019.78
2022-11-10T06:34:21.611Z,98037.34
2022-11-10T06:36:48.260Z,98040.78
2022-11-10T06:39:14.920Z,98036.00
2022-11-10T06:41:41.655Z,98048.31
2022-11-10T06:44:08.311Z,98057.53
2022-11-10T06:46:38.235Z,98052.59
2022-11-10T06:49:08.923Z,98068.69
2022-11-10T06:51:35.599Z,98064.91
2022-11-10T06:54:02.304Z,98070.81
2022-11-10T06:56:28.950Z,98075.72
2022-11-10T06:58:55.647Z,98078.34
2022-11-10T07:01:22.727Z,98079.31
2022-11-10T07:04:17.572Z,98085.56
2022-11-10T07:06:36.379Z,98099.72
2022-11-10T07:09:03.208Z,98098.53
2022-11-10T07:11:29.857Z,98100.47
2022-11-10T07:13:56.568Z,98108.38
2022-11-10T07:16:24.550Z,98109.19
2022-11-10T07:18:51.388Z,98108.03
2022-11-10T07:21:18.033Z,98119.22
2022-11-10T07:23:44.657Z,98119.38
2022-11-10T07:26:11.353Z,98124.13
2022-11-10T07:28:37.997Z,98126.91
2022-11-10T07:31:04.673Z,98122.81
2022-11-10T07:33:31.303Z,98122.50
2022-11-10T07:35:57.973Z,98124.97
2022-11-10T07:38:24.862Z,98131.34
2022-11-10T07:40:51.585Z,98139.34
2022-11-10T07:43:18.312Z,98140.66
2022-11-10T07:45:44.980Z,98143.03
2022-11-10T07:48:11.634Z,98146.44
2022-11-10T07:50:38.342Z,98149.72
2022-11-10T07:53:05.017Z,98146.19
2022-11-10T07:55:31.671Z,98155.28
2022-11-10T07:57:58.299Z,98158.09
2022-11-10T08:00:24.946Z,98159.59
2022-11-10T08:02:51.573Z,98161.69
2022-11-10T08:05:18.233Z,98160.41
2022-11-10T08:07:44.906Z,98166.56
2022-11-10T08:10:11.602Z,98167.94
2022-11-10T08:12:38.272Z,98172.09
2022-11-10T08:15:04.940Z,98177.47
2022-11-10T08:17:31.715Z,98177.88
2022-11-10T08:19:58.356Z,98183.03
2022-11-10T08:22:25.020Z,98192.94
2022-11-10T08:24:51.667Z,98190.44
2022-11-10T08:27:18.351Z,98201.03
2022-11-10T08:29:45.032Z,98203.53
2022-11-10T08:32:11.714Z,98212.66
2022-11-10T08:34:38.419Z,98211.38
2022-11-10T08:37:05.097Z,98220.06
2022-11-10T08:39:39.071Z,98228.13
2022-11-10T08:42:06.134Z,98229.53
2022-11-10T08:44:32.804Z,98235.16
2022-11-10T08:46:59.874Z,98228.59
2022-11-10T08:49:26.547Z,98243.13
2022-11-10T08:51:53.559Z,98250.41
2022-11-10T08:54:20.216Z,98258.88
2022-11-10T08:56:46.877Z,98257.56
2022-11-10T08:59:13.525Z,98271.06
2022-11-10T09:01:40.193Z,98272.88
2022-11-10T09:04:06.871Z,98283.94
2022-11-10T09:06:33.641Z,98290.63
2022-11-10T09:09:00.338Z,98293.28
2022-11-10T09:11:27.004Z,98297.34
2022-11-10T09:13:53.668Z,98297.94
2022-11-10T09:16:20.341Z,98301.75
2022-11-10T09:18:46.990Z,98317.38
2022-11-10T09:21:13.628Z,98316.66
2022-11-10T09:23:40.311Z,98324.59
2022-11-10T09:26:06.955Z,98323.00
2022-11-10T09:28:33.823Z,98330.03
2022-11-10T09:31:00.508Z,98336.22
2022-11-10T09:33:27.184Z,98341.00
2022-11-10T09:35:53.827Z,98337.81
2022-11-10T09:38:20.720Z,98348.47
2022-11-10T09:40:47.630Z,98353.75
2022-11-10T09:43:14.275Z,98346.69
2022-11-10T09:45:40.926Z,98355.91
2022-11-10T09:48:07.589Z,98362.22
2022-11-10T09:50:34.201Z,98367.00
2022-11-10T09:53:00.859Z,98366.63
2022-11-10T09:55:27.497Z,98370.25
2022-11-10T09:57:54.178Z,98368.38
2022-11-10T10:00:20.898Z,98374.94
2022-11-10T10:02:47.599Z,98364.75
2022-11-10T10:05:14.269Z,98368.38
2022-11-10T10:07:40.935Z,98365.63
2022-11-10T10:10:07.629Z,98375.31
2022-11-10T10:12:34.531Z,98373.38
2022-11-10T10:15:03.384Z,98374.47
2022-11-10T10:17:30.075Z,98375.13
2022-11-10T10:19:56.793Z,98377.53
2022-11-10T10:22:23.488Z,98376.91
2022-11-10T10:24:50.211Z,98372.06
2022-11-10T10:27:16.835Z,98378.53
2022-11-10T10:29:43.731Z,98373.69
2022-11-10T10:32:10.440Z,98378.66
2022-11-10T10:34:37.097Z,98377.31
2022-11-10T10:37:03.790Z,98382.63
2022-11-10T10:39:34.488Z,98383.56
2022-11-10T10:42:01.237Z,98384.75
2022-11-10T10:44:27.930Z,98388.28
2022-11-10T10:46:56.562Z,98385.91
2022-11-10T10:49:31.212Z,98389.44
2022-11-10T10:51:58.177Z,98382.69
2022-11-10T10:54:24.898Z,98384.34
2022-11-10T10:56:51.585Z,98385.88
2022-11-10T10:59:18.325Z,98385.63
2022-11-10T11:01:45.136Z,98382.34
2022-11-10T11:04:11.812Z,98382.63
2022-11-10T11:06:38.563Z,98394.41
2022-11-10T11:09:05.280Z,98388.56
2022-11-10T11:11:31.974Z,98393.31
2022-11-10T11:13:58.862Z,98398.69
2022-11-10T11:16:25.540Z,98394.66
2022-11-10T11:18:52.345Z,98401.06
2022-11-10T11:21:19.015Z,98403.41
2022-11-10T11:23:45.731Z,98396.78
2022-11-10T11:26:12.421Z,98403.53
2022-11-10T11:28:39.274Z,98401.78
2022-11-10T11:31:05.999Z,98410.72
2022-11-10T11:33:32.701Z,98398.97
2022-11-10T11:35:59.364Z,98406.31
2022-11-10T11:38:26.246Z,98406.44
2022-11-10T11:40:53.190Z,98402.69
2022-11-10T11:43:19.860Z,98400.22
2022-11-10T11:45:46.511Z,98404.63
2022-11-10T11:48:13.174Z,98414.03
2022-11-10T11:50:39.860Z,98416.81
2022-11-10T11:53:06.512Z,98424.84
2022-11-10T11:55:33.158Z,98415.97
2022-11-10T11:57:59.902Z,98425.34
2022-11-10T12:00:26.587Z,98422.41
2022-11-10T12:02:53.434Z,98418.44
2022-11-10T12:05:20.227Z,98408.94
2022-11-10T12:07:47.743Z,98411.09
2022-11-10T12:10:14.360Z,98414.97
2022-11-10T12:12:41.087Z,98422.63
2022-11-10T12:15:07.764Z,98419.69
2022-11-10T12:17:34.481Z,98419.84
2022-11-10T12:20:01.193Z,98417.84
2022-11-10T12:22:27.940Z,98423.50
2022-11-10T12:24:54.620Z,98421.63
2022-11-10T12:27:21.314Z,98432.97
2022-11-10T12:29:47.980Z,98429.59
2022-11-10T12:32:14.699Z,98435.34
2022-11-10T12:34:41.387Z,98438.31
2022-11-10T12:37:08.098Z,98435.41
2022-11-10T12:39:34.788Z,98432.66
2022-11-10T12:42:01.481Z,98438.69
2022-11-10T12:44:28.221Z,98439.09
2022-11-10T12:46:54.897Z,98440.53
2022-11-10T12:49:21.611Z,98446.06
2022-11-10T12:51:48.605Z,98454.91
2022-11-10T12:54:17.026Z,98463.72
2022-11-10T12:56:44.313Z,98464.28
2022-11-10T12:59:11.393Z,98462.38
2022-11-10T13:01:38.400Z,98474.78
2022-11-10T13:04:05.186Z,98475.25
2022-11-10T13:06:32.300Z,98474.06
2022-11-10T13:08:59.001Z,98474.00
2022-11-10T13:11:25.670Z,98469.16
2022-11-10T13:13:58.187Z,98472.88
2022-11-10T13:16:26.088Z,98474.97
2022-11-10T13:18:52.732Z,98475.06
2022-11-10T13:21:19.368Z,98473.75
2022-11-10T13:23:46.000Z,98473.44
2022-11-10T13:26:12.659Z,98462.28
2022-11-10T13:28:39.271Z,98461.41
2022-11-10T13:31:05.915Z,98473.63
2022-11-10T13:33:32.555Z,98477.53
2022-11-10T13:35:59.412Z,98481.94
2022-11-10T13:38:26.246Z,98479.41
2022-11-10T13:40:52.897Z,98471.44
2022-11-10T13:43:19.542Z,98474.56
2022-11-10T13:45:46.186Z,98484.06
2022-11-10T13:48:12.865Z,98482.13
2022-11-10T13:50:39.547Z,98484.06
2022-11-10T13:53:06.181Z,98486.44
2022-11-10T13:55:32.828Z,98481.72
2022-11-10T13:57:59.480Z,98498.94
2022-11-10T14:00:26.169Z,98486.72
2022-11-10T14:02:52.913Z,98498.19
2022-11-10T14:05:19.628Z,98505.09
2022-11-10T14:07:46.290Z,98498.19
2022-11-10T14:10:12.937Z,98504.22
2022-11-10T14:12:39.585Z,98501.91
2022-11-10T14:15:06.216Z,98508.59
2022-11-10T14:17:32.829Z,98524.75
2022-11-10T14:19:59.483Z,98519.09
2022-11-10T14:22:26.152Z,98525.91
2022-11-10T14:24:52.851Z,98532.03
2022-11-10T14:27:19.620Z,98535.38
2022-11-10T14:29:46.268Z,98540.75
2022-11-10T14:32:13.005Z,98541.75
2022-11-10T14:34:39.641Z,98545.09
2022-11-10T14:37:06.381Z,98541.38
2022-11-10T14:39:33.012Z,98542.63
2022-11-10T14:41:59.652Z,98542.03
2022-11-10T14:44:26.305Z,98543.84
2022-11-10T14:46:53.154Z,98546.50
2022-11-10T14:49:19.879Z,98545.16
2022-11-10T14:51:46.532Z,98548.53
2022-11-10T14:54:13.209Z,98545.38
2022-11-10T14:56:39.882Z,98534.97
2022-11-10T14:59:06.540Z,98541.13
2022-11-10T15:01:33.439Z,98547.78
2022-11-10T15:04:00.430Z,98547.72
2022-11-10T15:06:27.102Z,98549.63
2022-11-10T15:08:53.823Z,98551.03
2022-11-10T15:11:20.501Z,98545.63
2022-11-10T15:13:47.286Z,98551.66
2022-11-10T15:16:14.060Z,98557.16
2022-11-10T15:18:41.093Z,98556.69
2022-11-10T15:21:07.980Z,98548.75
2022-11-10T15:23:34.844Z,98550.94
2022-11-10T15:26:01.655Z,98567.13
2022-11-10T15:28:28.335Z,98568.03
2022-11-10T15:30:55.092Z,98574.69
2022-11-10T15:33:22.112Z,98580.47
2022-11-10T15:35:49.051Z,98575.03
2022-11-10T15:38:20.728Z,98583.72
2022-11-10T15:40:48.180Z,98582.88
2022-11-10T15:43:14.967Z,98581.41
2022-11-10T15:45:41.778Z,98575.44
2022-11-10T15:48:08.839Z,98584.75
2022-11-10T15:50:36.889Z,98582.31
2022-11-10T15:53:04.016Z,98588.28
2022-11-10T15:55:31.973Z,98589.47
2022-11-10T15:57:58.896Z,98605.34
2022-11-10T16:00:25.804Z,98611.22
2022-11-10T16:02:52.983Z,98621.66
2022-11-10T16:05:19.705Z,98619.94
2022-11-10T16:07:46.475Z,98635.31
2022-11-10T16:10:13.288Z,98633.22
2022-11-10T16:12:40.321Z,98638.63
2022-11-10T16:15:07.691Z,98645.09
2022-11-10T16:17:34.859Z,98642.00
2022-11-10T16:20:01.767Z,98642.53
2022-11-10T16:22:28.589Z,98638.75
2022-11-10T16:24:56.603Z,98649.31
2022-11-10T16:27:23.341Z,98645.69
2022-11-10T16:29:50.271Z,98644.88
2022-11-10T16:32:17.061Z,98648.66
2022-11-10T16:34:43.893Z,98657.09
2022-11-10T16:37:10.805Z,98658.72
2022-11-10T16:39:37.599Z,98667.00
2022-11-10T16:42:04.553Z,98672.28
2022-11-10T16:44:31.402Z,98668.78
2022-11-10T16:46:58.200Z,98666.44
2022-11-10T16:49:24.910Z,98674.19
2022-11-10T16:51:51.543Z,98678.97
2022-11-10T16:54:18.141Z,98683.38
2022-11-10T16:56:44.873Z,98690.03
2022-11-10T16:59:11.515Z,98696.56
2022-11-10T17:01:38.226Z,98698.06
2022-11-10T17:04:04.862Z,98705.13
2022-11-10T17:06:31.657Z,98696.06
2022-11-10T17:08:58.434Z,98706.38
2022-11-10T17:11:25.082Z,98708.06
2022-11-10T17:13:51.715Z,98706.69
2022-11-10T17:16:18.380Z,98712.97
2022-11-10T17:18:45.171Z,98712.13
2022-11-10T17:21:11.810Z,98706.97
2022-11-10T17:23:38.527Z,98712.94
2022-11-10T17:26:05.216Z,98722.59
2022-11-10T17:28:31.853Z,98716.09
2022-11-10T17:30:58.505Z,98721.88
2022-11-10T17:33:25.584Z,98724.72
2022-11-10T17:35:52.552Z,98726.56
2022-11-10T17:38:19.191Z,98729.41
2022-11-10T17:40:45.806Z,98733.03
2022-11-10T17:43:12.432Z,98734.81
2022-11-10T17:45:39.111Z,98746.38
2022-11-10T17:48:05.777Z,98747.19
2022-11-10T17:50:32.408Z,98757.03
2022-11-10T17:52:59.042Z,98748.25
2022-11-10T17:55:29.768Z,98758.47
2022-11-10T17:57:59.545Z,98756.38
2022-11-10T18:00:26.215Z,98768.94
2022-11-10T18:02:55.337Z,98764.63
2022-11-10T18:05:22.163Z,98773.25
2022-11-10T18:07:48.797Z,98766.53
2022-11-10T18:10:15.456Z,98783.88
2022-11-10T18:12:42.133Z,98787.53
2022-11-10T18:15:08.772Z,98786.00
2022-11-10T18:17:35.431Z,98783.09
2022-11-10T18:20:02.072Z,98788.03
2022-11-10T18:22:28.706Z,98792.34
2022-11-10T18:24:55.376Z,98787.63
2022-11-10T18:27:22.033Z,98793.19
2022-11-10T18:29:48.721Z,98797.44
2022-11-10T18:32:15.358Z,98803.47
2022-11-10T18:34:41.981Z,98810.09
2022-11-10T18:37:08.668Z,98809.88
2022-11-10T18:39:35.313Z,98813.50
2022-11-10T18:42:01.965Z,98820.59
2022-11-10T18:44:28.604Z,98821.81
2022-11-10T18:46:55.284Z,98809.75
2022-11-10T18:49:21.968Z,98826.47
2022-11-10T18:51:48.591Z,98820.59
2022-11-10T18:54:15.270Z,98824.06
2022-11-10T18:56:41.875Z,98832.44
2022-11-10T18:59:08.524Z,98828.75
2022-11-10T19:01:35.194Z,98833.59
2022-11-10T19:04:01.959Z,98835.63
2022-11-10T19:06:28.735Z,98835.94
2022-11-10T19:08:55.367Z,98839.34
2022-11-10T19:11:22.007Z,98846.66
2022-11-10T19:13:48.649Z,98861.63
2022-11-10T19:16:15.284Z,98865.53
2022-11-10T19:18:41.951Z,98877.25
2022-11-10T19:21:08.628Z,98878.44
2022-11-10T19:23:35.337Z,98884.19
2022-11-10T19:26:01.965Z,98893.53
2022-11-10T19:28:28.704Z,98888.56
2022-11-10T19:30:55.308Z,98887.19
2022-11-10T19:33:22.212Z,98888.13
2022-11-10T19:35:49.124Z,98885.47
2022-11-10T19:38:15.890Z,98888.84
2022-11-10T19:40:42.546Z,98877.56
2022-11-10T19:43:09.192Z,98883.47
2022-11-10T19:45:35.888Z,98889.84
2022-11-10T19:48:02.595Z,98883.84
2022-11-10T19:50:29.340Z,98888.69
2022-11-10T19:52:56.084Z,98884.34
2022-11-10T19:55:22.735Z,98893.75
2022-11-10T19:57:49.482Z,98893.75
2022-11-10T20:00:16.165Z,98897.50
2022-11-10T20:02:45.527Z,98896.34
2022-11-10T20:05:12.599Z,98892.91
2022-11-10T20:07:39.345Z,98890.53
2022-11-10T20:10:06.001Z,98891.28
2022-11-10T20:12:32.647Z,98888.38
2022-11-10T20:14:59.368Z,98885.88
2022-11-10T20:17:26.019Z,98897.63
2022-11-10T20:19:52.704Z,98900.53
2022-11-10T20:22:19.363Z,98895.84
2022-11-10T20:27:36.414Z,98914.34
2022-11-10T20:30:03.160Z,98917.25
2022-11-10T20:32:29.887Z,98918.63
2022-11-10T20:34:57.579Z,98914.47
2022-11-10T20:37:24.224Z,98913.25
2022-11-10T20:39:50.853Z,98917.94
2022-11-10T20:42:17.609Z,98917.56
2022-11-10T20:44:46.249Z,98927.59
2022-11-10T20:47:12.946Z,98930.06
2022-11-10T20:49:39.640Z,98928.94
2022-11-10T20:52:06.271Z,98943.03
2022-11-10T20:54:33.535Z,98944.72
2022-11-10T20:57:00.267Z,98951.66
2022-11-10T20:59:26.921Z,98946.69
2022-11-10T21:01:53.647Z,98950.41
2022-11-10T21:04:20.385Z,98947.34
2022-11-10T21:06:47.094Z,98953.84
2022-11-10T21:09:13.811Z,98948.47
2022-11-10T21:11:40.440Z,98953.81
2022-11-10T21:14:07.065Z,98953.44
2022-11-10T21:16:33.751Z,98958.69
2022-11-10T21:19:00.379Z,98965.56
2022-11-10T21:21:27.019Z,98956.19
2022-11-10T21:23:53.715Z,98961.63
2022-11-10T21:26:20.366Z,98956.13
2022-11-10T21:28:47.176Z,98963.97
2022-11-10T21:31:13.862Z,98965.94
2022-11-10T21:33:40.586Z,98968.81
2022-11-10T21:36:07.242Z,98976.31
2022-11-10T21:38:34.064Z,98978.34
2022-11-10T21:41:00.724Z,98988.75
2022-11-10T21:43:27.412Z,98988.19
2022-11-10T21:45:54.027Z,99001.38
2022-11-10T21:48:20.678Z,99007.72
2022-11-10T21:50:47.312Z,98997.94
2022-11-10T21:53:14.175Z,98999.31
2022-11-10T21:55:40.919Z,99008.69
2022-11-10T21:58:07.583Z,99002.84
2022-11-10T22:00:34.208Z,99004.97
2022-11-10T22:03:00.866Z,99005.59
2022-11-10T22:05:27.530Z,99002.53
2022-11-10T22:07:54.169Z,99001.72
2022-11-10T22:10:20.817Z,99013.97
2022-11-10T22:12:47.452Z,99011.44
2022-11-10T22:15:14.198Z,99008.38
2022-11-10T22:17:40.850Z,99015.78
2022-11-10T22:20:07.503Z,99010.34
2022-11-10T22:22:34.137Z,99000.47
2022-11-10T22:25:00.758Z,99017.41
2022-11-10T22:27:27.437Z,99015.63
2022-11-10T22:29:54.068Z,99013.19
2022-11-10T22:32:20.718Z,99015.16
2022-11-10T22:34:47.373Z,99028.47
2022-11-10T22:37:14.038Z,99028.34
2022-11-10T22:39:40.667Z,99019.00
2022-11-10T22:42:07.300Z,99014.47
2022-11-10T22:44:33.942Z,99023.97
2022-11-10T22:47:00.692Z,99022.31
2022-11-10T22:49:27.359Z,99023.66
2022-11-10T22:51:54.040Z,99025.28
2022-11-10T22:54:20.656Z,99033.59
2022-11-10T22:56:47.314Z,99026.56
2022-11-10T22:59:13.971Z,99021.69
2022-11-10T23:01:40.628Z,99025.28
2022-11-10T23:04:07.335Z,99022.84
2022-11-10T23:06:34.086Z,99028.22
2022-11-10T23:09:00.796Z,99019.34
2022-11-10T23:11:27.429Z,99030.06
2022-11-10T23:13:54.083Z,99036.00
2022-11-10T23:16:20.765Z,99045.09
2022-11-10T23:18:47.400Z,99039.34
2022-11-10T23:21:14.054Z,99030.06
2022-11-10T23:23:40.719Z,99026.09
2022-11-10T23:26:07.372Z,99033.41
2022-11-10T23:28:34.049Z,99040.69
2022-11-10T23:31:00.723Z,99053.44
2022-11-10T23:33:32.257Z,99048.03
2022-11-10T23:35:59.565Z,99042.91
2022-11-10T23:38:26.181Z,99040.31
2022-11-10T23:40:53.030Z,99038.69
2022-11-10T23:43:19.652Z,99046.31
2022-11-10T23:46:05.814Z,99044.50
2022-11-10T23:48:32.916Z,99040.03
2022-11-10T23:50:59.554Z,99035.19
2022-11-10T23:53:26.540Z,99036.34
2022-11-10T23:55:53.323Z,99031.72
2022-11-10T23:58:19.967Z,99037.22
